createdAt,value
2018-08-28T00:01:53.458Z,16.70
2018-08-28T00:04:22.422Z,16.69
2018-08-28T00:06:51.397Z,16.70
2018-08-28T00:09:20.378Z,16.60
2018-08-28T00:11:49.378Z,16.54
2018-08-28T00:14:20.082Z,16.44
2018-08-28T00:16:49.052Z,16.31
2018-08-28T00:19:18.021Z,16.15
2018-08-28T00:21:47.409Z,16.00
2018-08-28T00:24:16.375Z,15.90
2018-08-28T00:26:45.506Z,15.75
2018-08-28T00:29:14.486Z,15.67
2018-08-28T00:31:43.444Z,15.60
2018-08-28T00:34:12.413Z,15.51
2018-08-28T00:36:41.374Z,15.40
2018-08-28T00:39:10.338Z,15.30
2018-08-28T00:41:39.301Z,15.30
2018-08-28T00:44:08.334Z,15.22
2018-08-28T00:46:37.682Z,15.16
2018-08-28T00:49:06.667Z,15.13
2018-08-28T00:51:35.658Z,14.99
2018-08-28T00:54:04.678Z,14.93
2018-08-28T00:56:33.657Z,14.81
2018-08-28T00:59:02.666Z,14.76
2018-08-28T01:01:31.658Z,14.73
2018-08-28T01:04:00.677Z,14.61
2018-08-28T01:06:29.742Z,14.48
2018-08-28T01:08:58.761Z,14.41
2018-08-28T01:11:27.723Z,14.33
2018-08-28T01:13:56.694Z,14.25
2018-08-28T01:16:25.708Z,14.18
2018-08-28T01:18:54.674Z,14.11
2018-08-28T01:21:23.680Z,14.07
2018-08-28T01:23:52.709Z,14.01
2018-08-28T01:26:21.728Z,13.98
2018-08-28T01:28:50.725Z,13.89
2018-08-28T01:31:19.712Z,13.84
2018-08-28T01:33:48.718Z,13.75
2018-08-28T01:36:17.701Z,13.68
2018-08-28T01:38:46.721Z,13.61
2018-08-28T01:41:15.706Z,13.62
2018-08-28T01:43:44.681Z,13.64
2018-08-28T01:46:13.702Z,13.62
2018-08-28T01:48:42.686Z,13.58
2018-08-28T01:51:11.698Z,13.55
2018-08-28T01:53:40.675Z,13.48
2018-08-28T01:56:09.687Z,13.41
2018-08-28T01:58:38.678Z,13.41
2018-08-28T02:01:07.753Z,13.39
2018-08-28T02:03:36.730Z,13.33
2018-08-28T02:06:05.999Z,13.25
2018-08-28T02:08:34.980Z,13.25
2018-08-28T02:11:04.126Z,13.21
2018-08-28T02:13:33.210Z,13.25
2018-08-28T02:16:02.424Z,13.23
2018-08-28T02:18:31.436Z,13.24
2018-08-28T02:21:00.434Z,13.13
2018-08-28T02:23:29.419Z,13.05
2018-08-28T02:25:58.439Z,13.02
2018-08-28T02:28:27.514Z,12.91
2018-08-28T02:30:56.510Z,12.90
2018-08-28T02:33:25.506Z,12.87
2018-08-28T02:35:57.506Z,12.81
2018-08-28T02:38:26.490Z,12.78
2018-08-28T02:40:55.499Z,12.72
2018-08-28T02:43:24.471Z,12.74
2018-08-28T02:45:53.443Z,12.72
2018-08-28T02:48:22.452Z,12.74
2018-08-28T02:50:51.415Z,12.72
2018-08-28T02:53:20.390Z,12.71
2018-08-28T02:55:49.403Z,12.59
2018-08-28T02:58:18.490Z,12.48
2018-08-28T03:00:47.492Z,12.38
2018-08-28T03:03:16.479Z,12.41
2018-08-28T03:05:45.450Z,12.46
2018-08-28T03:08:14.462Z,12.41
2018-08-28T03:10:43.440Z,12.31
2018-08-28T03:13:12.438Z,12.25
2018-08-28T03:15:41.514Z,12.31
2018-08-28T03:18:10.433Z,12.29
2018-08-28T03:20:39.412Z,12.32
2018-08-28T03:23:08.452Z,12.32
2018-08-28T03:25:37.452Z,12.29
2018-08-28T03:28:06.443Z,12.21
2018-08-28T03:30:35.447Z,12.15
2018-08-28T03:33:04.450Z,12.06
2018-08-28T03:35:33.493Z,11.97
2018-08-28T03:38:02.528Z,11.96
2018-08-28T03:40:31.477Z,11.85
2018-08-28T03:43:00.489Z,11.81
2018-08-28T03:45:29.555Z,11.85
2018-08-28T03:47:58.542Z,11.81
2018-08-28T03:50:27.598Z,11.87
2018-08-28T03:52:56.594Z,11.93
2018-08-28T03:55:25.619Z,11.94
2018-08-28T03:57:54.585Z,11.96
2018-08-28T04:00:23.579Z,11.95
2018-08-28T04:02:52.554Z,12.07
2018-08-28T04:05:21.790Z,12.04
2018-08-28T04:07:50.782Z,12.13
2018-08-28T04:10:19.755Z,12.08
2018-08-28T04:12:48.754Z,12.13
2018-08-28T04:15:17.730Z,11.98
2018-08-28T04:17:50.431Z,11.87
2018-08-28T04:20:20.551Z,11.84
2018-08-28T04:22:49.596Z,11.72
2018-08-28T04:25:19.095Z,11.65
2018-08-28T04:27:48.490Z,11.70
2018-08-28T04:30:17.597Z,11.69
2018-08-28T04:32:46.562Z,11.71
2018-08-28T04:35:15.551Z,11.73
2018-08-28T04:37:44.529Z,11.71
2018-08-28T04:40:13.538Z,11.77
2018-08-28T04:42:42.515Z,11.74
2018-08-28T04:45:11.503Z,11.70
2018-08-28T04:47:40.490Z,11.72
2018-08-28T04:50:09.532Z,11.76
2018-08-28T04:52:38.531Z,11.80
2018-08-28T04:55:07.502Z,11.84
2018-08-28T04:57:36.682Z,11.89
2018-08-28T05:00:07.299Z,11.91
2018-08-28T05:02:37.638Z,11.98
2018-08-28T05:05:08.518Z,11.99
2018-08-28T05:07:37.514Z,12.00
2018-08-28T05:10:07.216Z,11.99
2018-08-28T05:12:36.194Z,12.07
2018-08-28T05:15:05.397Z,12.19
2018-08-28T05:17:34.451Z,12.24
2018-08-28T05:20:03.483Z,12.26
2018-08-28T05:22:32.462Z,12.30
2018-08-28T05:25:01.677Z,12.36
2018-08-28T05:27:30.741Z,12.45
2018-08-28T05:29:59.747Z,12.55
2018-08-28T05:32:28.760Z,12.68
2018-08-28T05:34:57.722Z,12.77
2018-08-28T05:37:26.718Z,12.78
2018-08-28T05:39:55.702Z,12.89
2018-08-28T05:42:24.682Z,12.96
2018-08-28T05:44:53.690Z,13.12
2018-08-28T05:47:22.667Z,13.25
2018-08-28T05:49:51.933Z,13.27
2018-08-28T05:52:20.919Z,13.33
2018-08-28T05:54:49.901Z,13.41
2018-08-28T05:57:18.900Z,13.45
2018-08-28T05:59:47.954Z,13.51
2018-08-28T06:02:16.991Z,13.59
2018-08-28T06:04:45.981Z,13.74
2018-08-28T06:07:14.961Z,13.73
2018-08-28T06:09:44.022Z,13.84
2018-08-28T06:12:13.044Z,13.88
2018-08-28T06:14:42.096Z,13.96
2018-08-28T06:17:11.029Z,14.07
2018-08-28T06:19:40.038Z,14.22
2018-08-28T06:22:09.199Z,14.27
2018-08-28T06:24:38.183Z,14.36
2018-08-28T06:27:07.278Z,14.51
2018-08-28T06:29:36.255Z,14.64
2018-08-28T06:32:05.620Z,14.77
2018-08-28T06:34:34.664Z,14.82
2018-08-28T06:37:03.742Z,15.03
2018-08-28T06:39:32.751Z,15.15
2018-08-28T06:42:01.818Z,15.12
2018-08-28T06:44:30.858Z,15.33
2018-08-28T06:46:59.842Z,15.45
2018-08-28T06:49:28.948Z,15.49
2018-08-28T06:51:57.875Z,15.69
2018-08-28T06:54:26.848Z,15.75
2018-08-28T06:56:55.911Z,15.86
2018-08-28T06:59:24.832Z,15.98
2018-08-28T07:01:53.859Z,16.23
2018-08-28T07:04:22.840Z,16.31
2018-08-28T07:06:51.844Z,16.43
2018-08-28T07:09:20.810Z,16.63
2018-08-28T07:11:49.851Z,16.60
2018-08-28T07:14:18.854Z,16.67
2018-08-28T07:16:47.839Z,16.76
2018-08-28T07:19:17.226Z,16.70
2018-08-28T07:21:46.218Z,16.94
2018-08-28T07:24:15.265Z,17.02
2018-08-28T07:26:44.279Z,17.26
2018-08-28T07:29:13.270Z,17.24
2018-08-28T07:31:42.296Z,17.35
2018-08-28T07:34:11.276Z,17.39
2018-08-28T07:36:40.679Z,17.49
2018-08-28T07:39:09.766Z,17.53
2018-08-28T07:41:38.759Z,17.59
2018-08-28T07:44:07.859Z,17.61
2018-08-28T07:46:36.831Z,17.89
2018-08-28T07:49:06.682Z,17.85
2018-08-28T07:51:35.666Z,17.94
2018-08-28T07:54:04.662Z,18.07
2018-08-28T07:56:34.058Z,18.17
2018-08-28T07:59:03.078Z,18.36
2018-08-28T08:01:32.206Z,18.50
2018-08-28T08:04:01.084Z,18.71
2018-08-28T08:06:30.080Z,18.92
2018-08-28T08:08:59.058Z,19.02
2018-08-28T08:11:28.324Z,19.10
2018-08-28T08:13:57.314Z,19.10
2018-08-28T08:16:26.394Z,19.24
2018-08-28T08:18:55.406Z,19.37
2018-08-28T08:21:24.400Z,19.48
2018-08-28T08:23:53.442Z,19.63
2018-08-28T08:26:22.669Z,19.58
2018-08-28T08:28:51.654Z,19.68
2018-08-28T08:31:20.790Z,19.68
2018-08-28T08:33:49.786Z,19.88
2018-08-28T08:36:18.791Z,19.98
2018-08-28T08:38:47.766Z,20.11
2018-08-28T08:41:16.742Z,20.23
2018-08-28T08:43:45.767Z,20.39
2018-08-28T08:46:14.794Z,20.40
2018-08-28T08:48:43.807Z,20.36
2018-08-28T08:51:12.849Z,20.43
2018-08-28T08:53:41.837Z,20.65
2018-08-28T08:56:11.033Z,20.83
2018-08-28T08:58:40.023Z,20.64
2018-08-28T09:01:09.035Z,20.79
2018-08-28T09:03:38.013Z,20.93
2018-08-28T09:06:07.271Z,20.85
2018-08-28T09:08:36.197Z,20.90
2018-08-28T09:11:05.226Z,20.92
2018-08-28T09:13:34.359Z,20.97
2018-08-28T09:16:03.268Z,20.75
2018-08-28T09:18:32.277Z,20.43
2018-08-28T09:21:01.268Z,20.23
2018-08-28T09:23:30.259Z,20.28
2018-08-28T09:25:59.299Z,20.41
2018-08-28T09:28:28.267Z,20.74
2018-08-28T09:30:57.283Z,20.75
2018-08-28T09:33:26.261Z,21.11
2018-08-28T09:35:55.565Z,21.42
2018-08-28T09:38:24.623Z,21.45
2018-08-28T09:40:53.522Z,21.60
2018-08-28T09:43:22.530Z,21.79
2018-08-28T09:45:51.706Z,21.78
2018-08-28T09:48:20.906Z,21.92
2018-08-28T09:50:49.714Z,21.77
2018-08-28T09:53:18.794Z,21.86
2018-08-28T09:55:47.774Z,21.95
2018-08-28T09:58:16.762Z,22.05
2018-08-28T10:00:51.102Z,22.06
2018-08-28T10:03:20.082Z,22.31
2018-08-28T10:05:49.154Z,22.38
2018-08-28T10:08:18.379Z,22.22
2018-08-28T10:10:47.428Z,22.19
2018-08-28T10:13:16.354Z,22.41
2018-08-28T10:15:45.371Z,22.38
2018-08-28T10:18:14.385Z,22.37
2018-08-28T10:20:43.362Z,22.54
2018-08-28T10:23:12.382Z,22.62
2018-08-28T10:25:41.371Z,22.38
2018-08-28T10:28:10.365Z,22.44
2018-08-28T10:30:39.446Z,22.47
2018-08-28T10:33:08.422Z,22.32
2018-08-28T10:35:37.696Z,22.21
2018-08-28T10:38:06.720Z,22.61
2018-08-28T10:40:35.658Z,22.77
2018-08-28T10:43:04.703Z,22.88
2018-08-28T10:45:33.668Z,22.74
2018-08-28T10:48:02.715Z,22.88
2018-08-28T10:50:31.691Z,23.23
2018-08-28T10:53:00.702Z,23.38
2018-08-28T10:55:29.674Z,23.37
2018-08-28T10:57:58.666Z,23.39
2018-08-28T11:00:27.674Z,23.45
2018-08-28T11:02:56.650Z,23.43
2018-08-28T11:05:25.642Z,23.65
2018-08-28T11:07:54.635Z,23.47
2018-08-28T11:10:23.625Z,23.62
2018-08-28T11:12:52.878Z,23.75
2018-08-28T11:15:21.860Z,23.53
2018-08-28T11:17:50.826Z,23.56
2018-08-28T11:20:19.822Z,23.98
2018-08-28T11:22:48.857Z,23.83
2018-08-28T11:25:17.795Z,23.82
2018-08-28T11:27:46.802Z,23.91
2018-08-28T11:30:15.822Z,24.03
2018-08-28T11:32:44.944Z,23.86
2018-08-28T11:35:13.964Z,23.99
2018-08-28T11:37:42.970Z,24.11
2018-08-28T11:40:11.946Z,24.08
2018-08-28T11:42:40.948Z,23.97
2018-08-28T11:45:09.923Z,24.21
2018-08-28T11:47:38.927Z,24.50
2018-08-28T11:50:07.918Z,24.62
2018-08-28T11:52:36.930Z,24.76
2018-08-28T11:55:06.220Z,25.02
2018-08-28T11:57:35.405Z,24.99
2018-08-28T12:00:04.923Z,25.17
2018-08-28T12:02:33.919Z,25.02
2018-08-28T12:05:02.969Z,25.28
2018-08-28T12:07:31.946Z,25.30
2018-08-28T12:10:00.936Z,25.47
2018-08-28T12:12:29.944Z,25.56
2018-08-28T12:14:58.939Z,25.21
2018-08-28T12:17:27.931Z,25.52
2018-08-28T12:19:56.914Z,25.25
2018-08-28T12:22:25.914Z,25.41
2018-08-28T12:24:54.912Z,25.26
2018-08-28T12:27:23.903Z,25.09
2018-08-28T12:29:52.899Z,24.70
2018-08-28T12:32:21.883Z,25.03
2018-08-28T12:34:50.887Z,25.54
2018-08-28T12:37:19.863Z,25.85
2018-08-28T12:39:48.834Z,26.02
2018-08-28T12:42:17.823Z,26.02
2018-08-28T12:44:46.802Z,25.57
2018-08-28T12:47:15.794Z,25.83
2018-08-28T12:49:44.787Z,25.87
2018-08-28T12:52:13.865Z,25.72
2018-08-28T12:54:42.801Z,26.01
2018-08-28T12:57:11.814Z,25.78
2018-08-28T12:59:40.818Z,25.92
2018-08-28T13:02:09.927Z,26.01
2018-08-28T13:04:38.890Z,26.19
2018-08-28T13:07:07.881Z,26.01
2018-08-28T13:09:36.850Z,26.06
2018-08-28T13:12:05.846Z,26.13
2018-08-28T13:14:34.878Z,25.94
2018-08-28T13:17:03.908Z,25.88
2018-08-28T13:19:32.890Z,25.91
2018-08-28T13:22:01.924Z,26.21
2018-08-28T13:24:30.986Z,25.69
2018-08-28T13:27:00.042Z,26.05
2018-08-28T13:29:29.067Z,26.09
2018-08-28T13:31:58.099Z,26.20
2018-08-28T13:34:27.110Z,26.25
2018-08-28T13:36:57.323Z,26.02
2018-08-28T13:39:26.309Z,26.12
2018-08-28T13:41:55.332Z,26.06
2018-08-28T13:44:24.394Z,26.16
2018-08-28T13:46:53.394Z,26.42
2018-08-28T13:49:22.426Z,26.51
2018-08-28T13:51:51.429Z,26.73
2018-08-28T13:54:20.477Z,26.75
2018-08-28T13:56:49.413Z,26.48
2018-08-28T13:59:18.418Z,26.69
2018-08-28T14:01:47.404Z,26.71
2018-08-28T14:04:16.686Z,26.69
2018-08-28T14:06:45.699Z,26.82
2018-08-28T14:09:14.677Z,26.47
2018-08-28T14:11:45.086Z,26.50
2018-08-28T14:14:14.106Z,26.71
2018-08-28T14:16:43.143Z,26.50
2018-08-28T14:19:12.126Z,26.65
2018-08-28T14:21:41.129Z,26.83
2018-08-28T14:24:10.279Z,26.67
2018-08-28T14:26:39.552Z,26.54
2018-08-28T14:29:08.571Z,26.70
2018-08-28T14:31:37.521Z,27.05
2018-08-28T14:34:06.519Z,26.69
2018-08-28T14:36:35.494Z,26.71
2018-08-28T14:39:05.883Z,26.70
2018-08-28T14:41:34.859Z,26.61
2018-08-28T14:44:04.030Z,26.72
2018-08-28T14:46:33.008Z,26.71
2018-08-28T14:49:02.286Z,26.27
2018-08-28T14:51:31.263Z,26.39
2018-08-28T14:54:00.266Z,26.39
2018-08-28T14:56:29.437Z,26.31
2018-08-28T14:58:58.458Z,26.37
2018-08-28T15:01:27.559Z,26.48
2018-08-28T15:03:56.546Z,26.30
2018-08-28T15:06:25.635Z,26.43
2018-08-28T15:08:54.627Z,26.44
2018-08-28T15:11:23.647Z,26.47
2018-08-28T15:13:52.674Z,26.22
2018-08-28T15:16:21.674Z,26.16
2018-08-28T15:18:50.691Z,26.17
2018-08-28T15:21:19.704Z,26.28
2018-08-28T15:23:48.953Z,26.36
2018-08-28T15:26:18.027Z,26.06
2018-08-28T15:28:47.024Z,26.18
2018-08-28T15:31:15.999Z,25.94
2018-08-28T15:33:44.980Z,25.92
2018-08-28T15:36:13.966Z,25.95
2018-08-28T15:38:43.267Z,25.95
2018-08-28T15:41:12.055Z,26.14
2018-08-28T15:43:41.042Z,26.06
2018-08-28T15:46:10.038Z,25.88
2018-08-28T15:48:39.050Z,25.74
2018-08-28T15:51:08.129Z,25.83
2018-08-28T15:53:37.091Z,25.77
2018-08-28T15:56:06.070Z,25.65
2018-08-28T15:58:35.055Z,25.91
2018-08-28T16:01:04.140Z,25.76
2018-08-28T16:03:33.194Z,25.83
2018-08-28T16:06:02.223Z,25.78
2018-08-28T16:08:31.247Z,25.78
2018-08-28T16:11:00.249Z,25.59
2018-08-28T16:13:29.258Z,25.44
2018-08-28T16:15:58.254Z,25.48
2018-08-28T16:18:27.266Z,25.43
2018-08-28T16:20:56.254Z,25.39
2018-08-28T16:23:32.681Z,25.48
2018-08-28T16:26:01.649Z,25.43
2018-08-28T16:28:30.837Z,25.34
2018-08-28T16:30:59.636Z,25.24
2018-08-28T16:33:28.628Z,25.27
2018-08-28T16:35:57.709Z,25.07
2018-08-28T16:38:26.612Z,25.08
2018-08-28T16:40:55.611Z,25.10
2018-08-28T16:43:24.582Z,24.99
2018-08-28T16:45:53.586Z,24.76
2018-08-28T16:48:22.724Z,24.56
2018-08-28T16:50:51.672Z,24.46
2018-08-28T16:53:20.696Z,24.35
2018-08-28T16:55:49.692Z,24.10
2018-08-28T16:58:18.822Z,23.92
2018-08-28T17:00:47.802Z,23.78
2018-08-28T17:03:16.806Z,23.66
2018-08-28T17:05:45.822Z,23.48
2018-08-28T17:08:14.834Z,23.21
2018-08-28T17:10:43.851Z,23.05
2018-08-28T17:13:12.859Z,22.90
2018-08-28T17:15:41.854Z,22.68
2018-08-28T17:18:10.895Z,22.59
2018-08-28T17:20:39.911Z,22.39
2018-08-28T17:23:08.954Z,22.21
2018-08-28T17:25:37.922Z,22.04
2018-08-28T17:28:06.917Z,21.89
2018-08-28T17:30:42.550Z,21.70
2018-08-28T17:33:11.599Z,21.50
2018-08-28T17:35:40.597Z,21.30
2018-08-28T17:38:10.030Z,21.17
2018-08-28T17:40:39.043Z,21.04
2018-08-28T17:43:08.264Z,20.89
2018-08-28T17:45:37.234Z,20.71
2018-08-28T17:48:06.348Z,20.54
2018-08-28T17:50:35.380Z,20.40
2018-08-28T17:53:05.114Z,20.24
2018-08-28T17:55:34.092Z,20.05
2018-08-28T17:58:03.202Z,19.88
2018-08-28T18:00:32.174Z,19.74
2018-08-28T18:03:01.163Z,19.57
2018-08-28T18:05:30.178Z,19.39
2018-08-28T18:07:59.179Z,19.22
2018-08-28T18:10:28.167Z,19.04
2018-08-28T18:12:57.194Z,18.92
2018-08-28T18:15:26.331Z,18.73
2018-08-28T18:17:55.296Z,18.59
2018-08-28T18:20:24.345Z,18.53
2018-08-28T18:22:53.340Z,18.46
2018-08-28T18:25:22.405Z,18.30
2018-08-28T18:27:51.553Z,18.13
2018-08-28T18:30:21.024Z,17.96
2018-08-28T18:32:50.044Z,17.83
2018-08-28T18:35:19.579Z,17.74
2018-08-28T18:37:48.539Z,17.69
2018-08-28T18:40:17.550Z,17.58
2018-08-28T18:42:46.556Z,17.50
2018-08-28T18:45:15.546Z,17.52
2018-08-28T18:47:44.543Z,17.44
2018-08-28T18:50:13.530Z,17.28
2018-08-28T18:52:42.590Z,17.19
2018-08-28T18:55:11.572Z,17.10
2018-08-28T18:57:40.582Z,17.03
2018-08-28T19:00:09.558Z,17.00
2018-08-28T19:02:38.638Z,17.04
2018-08-28T19:05:07.558Z,17.12
2018-08-28T19:07:36.569Z,17.35
2018-08-28T19:10:05.548Z,17.35
2018-08-28T19:12:34.513Z,17.35
2018-08-28T19:15:03.528Z,17.53
2018-08-28T19:17:32.493Z,17.54
2018-08-28T19:20:02.402Z,17.53
2018-08-28T19:22:31.391Z,17.45
2018-08-28T19:25:00.381Z,17.42
2018-08-28T19:27:29.374Z,17.41
2018-08-28T19:29:58.438Z,17.33
2018-08-28T19:32:27.802Z,17.24
2018-08-28T19:34:56.766Z,17.17
2018-08-28T19:37:25.883Z,17.13
2018-08-28T19:39:54.841Z,17.17
2018-08-28T19:42:23.876Z,17.21
2018-08-28T19:44:52.927Z,17.14
2018-08-28T19:47:21.898Z,17.14
2018-08-28T19:49:51.010Z,17.08
2018-08-28T19:52:19.930Z,16.98
2018-08-28T19:54:49.101Z,16.94
2018-08-28T19:57:18.059Z,16.94
2018-08-28T19:59:47.243Z,16.98
2018-08-28T20:02:16.279Z,16.89
2018-08-28T20:04:45.351Z,16.84
2018-08-28T20:07:14.350Z,16.73
2018-08-28T20:09:43.333Z,16.77
2018-08-28T20:12:12.335Z,16.76
2018-08-28T20:14:41.529Z,16.71
2018-08-28T20:17:10.465Z,16.67
2018-08-28T20:19:39.413Z,16.66
2018-08-28T20:22:10.839Z,16.74
2018-08-28T20:24:39.980Z,17.01
2018-08-28T20:27:09.119Z,17.12
2018-08-28T20:29:38.132Z,17.20
2018-08-28T20:32:07.395Z,17.35
2018-08-28T20:34:36.302Z,17.55
2018-08-28T20:37:05.427Z,17.61
2018-08-28T20:39:34.428Z,17.62
2018-08-28T20:42:03.401Z,17.62
2018-08-28T20:44:32.378Z,17.66
2018-08-28T20:47:01.371Z,17.55
2018-08-28T20:49:30.339Z,17.58
2018-08-28T20:51:59.334Z,17.45
2018-08-28T20:54:28.324Z,17.35
2018-08-28T20:56:57.319Z,17.29
2018-08-28T20:59:26.303Z,17.09
2018-08-28T21:01:55.410Z,16.99
2018-08-28T21:04:24.626Z,16.86
2018-08-28T21:06:53.660Z,16.79
2018-08-28T21:09:22.626Z,16.79
2018-08-28T21:11:51.579Z,16.79
2018-08-28T21:14:20.567Z,17.01
2018-08-28T21:16:49.533Z,17.03
2018-08-28T21:19:18.541Z,17.01
2018-08-28T21:21:47.502Z,16.94
2018-08-28T21:24:16.538Z,16.97
2018-08-28T21:26:45.518Z,17.02
2018-08-28T21:29:14.523Z,17.02
2018-08-28T21:31:43.535Z,17.04
2018-08-28T21:34:12.499Z,16.90
2018-08-28T21:36:41.498Z,16.81
2018-08-28T21:39:10.465Z,16.76
2018-08-28T21:41:39.501Z,16.69
2018-08-28T21:44:08.478Z,16.64
2018-08-28T21:46:37.482Z,16.55
2018-08-28T21:49:06.481Z,16.49
2018-08-28T21:51:35.473Z,16.36
2018-08-28T21:54:04.531Z,16.28
2018-08-28T21:56:33.490Z,16.23
2018-08-28T21:59:02.504Z,16.17
2018-08-28T22:01:31.457Z,16.07
2018-08-28T22:04:00.467Z,16.00
2018-08-28T22:06:34.787Z,16.02
2018-08-28T22:09:04.770Z,16.05
2018-08-28T22:11:33.950Z,16.01
2018-08-28T22:14:02.978Z,15.93
2018-08-28T22:16:31.986Z,16.00
2018-08-28T22:19:01.015Z,15.95
2018-08-28T22:21:29.978Z,15.93
2018-08-28T22:23:58.971Z,15.94
2018-08-28T22:26:27.958Z,15.93
2018-08-28T22:28:56.932Z,15.95
2018-08-28T22:31:25.964Z,16.01
2018-08-28T22:33:54.935Z,16.02
2018-08-28T22:36:24.062Z,16.14
2018-08-28T22:38:53.053Z,16.18
2018-08-28T22:41:22.025Z,16.41
2018-08-28T22:43:51.013Z,16.60
2018-08-28T22:46:19.972Z,16.56
2018-08-28T22:48:49.274Z,16.59
2018-08-28T22:51:18.242Z,16.67
2018-08-28T22:53:47.219Z,16.76
2018-08-28T22:56:16.216Z,16.78
2018-08-28T22:58:45.286Z,16.84
2018-08-28T23:01:14.254Z,16.82
2018-08-28T23:03:43.234Z,16.87
2018-08-28T23:06:12.229Z,16.78
2018-08-28T23:08:41.202Z,16.69
2018-08-28T23:11:10.311Z,16.67
2018-08-28T23:13:39.286Z,16.63
2018-08-28T23:16:08.273Z,16.65
2018-08-28T23:18:37.414Z,16.52
2018-08-28T23:21:06.391Z,16.45
2018-08-28T23:23:35.390Z,16.43
2018-08-28T23:26:04.575Z,16.49
2018-08-28T23:28:33.574Z,16.44
2018-08-28T23:31:02.574Z,16.45
2018-08-28T23:33:31.573Z,16.46
2018-08-28T23:36:00.538Z,16.43
2018-08-28T23:38:29.590Z,16.35
2018-08-28T23:40:58.574Z,16.57
2018-08-28T23:43:27.542Z,16.54
2018-08-28T23:45:56.525Z,16.49
2018-08-28T23:48:25.810Z,16.52
2018-08-28T23:50:54.807Z,16.51
2018-08-28T23:53:23.866Z,16.46
2018-08-28T23:55:52.951Z,16.54
2018-08-28T23:58:21.828Z,16.38
